Alinda, Pennsylvania
Current Conditions -  °F | °C
As of 2:56 PM on Saturday 25 Oct 2014 (Local Time) from KCXY Reporting Station
Clear Clear  
Wind Chill: 69°   Ceiling: Unl
Heat Index: 69°   Visibility: 10mi
Dew Point: 44°   Wind: 13mph
Humidity: 40%   Direction: 250°WSW
Pressure: 29.76"   Gusts: NA
Location:  40.3086°N, 77.3363°W
Report Text: KCXY 251856Z 25011KT 10SM CLR 21/07 A2976 RMK AO2 SLP080 T02060067
Loading
Personal Weather Stations






























Interactive Weather Map New forecast layout! Learn more

10-Day Weather Forecast

Advertisements
Track Severe Weather on mobile